sensor_id;sensor_type;location;lat;lon;timestamp;P1;durP1;ratioP1;P2;durP2;ratioP2
73120;SDS011;61307;49.628;-1.624;2023-11-22T00:01:53;3.92;;;1.13;;
73120;SDS011;61307;49.628;-1.624;2023-11-22T00:04:20;1.80;;;1.00;;
73120;SDS011;61307;49.628;-1.624;2023-11-22T00:06:47;4.75;;;1.30;;
73120;SDS011;61307;49.628;-1.624;2023-11-22T00:09:15;5.15;;;1.60;;
73120;SDS011;61307;49.628;-1.624;2023-11-22T00:11:47;6.55;;;1.33;;
73120;SDS011;61307;49.628;-1.624;2023-11-22T00:14:13;2.20;;;1.00;;
73120;SDS011;61307;49.628;-1.624;2023-11-22T00:16:40;3.83;;;1.50;;
73120;SDS011;61307;49.628;-1.624;2023-11-22T00:19:08;3.65;;;1.35;;
73120;SDS011;61307;49.628;-1.624;2023-11-22T00:21:34;2.15;;;1.15;;
73120;SDS011;61307;49.628;-1.624;2023-11-22T00:24:01;1.83;;;1.02;;
73120;SDS011;61307;49.628;-1.624;2023-11-22T00:26:31;2.95;;;1.35;;
73120;SDS011;61307;49.628;-1.624;2023-11-22T00:28:57;2.03;;;1.25;;
73120;SDS011;61307;49.628;-1.624;2023-11-22T00:31:24;1.75;;;1.30;;
73120;SDS011;61307;49.628;-1.624;2023-11-22T00:33:51;3.22;;;1.10;;
73120;SDS011;61307;49.628;-1.624;2023-11-22T00:36:18;2.67;;;1.13;;
73120;SDS011;61307;49.628;-1.624;2023-11-22T00:38:44;2.22;;;1.00;;
73120;SDS011;61307;49.628;-1.624;2023-11-22T00:41:11;5.30;;;1.30;;
73120;SDS011;61307;49.628;-1.624;2023-11-22T00:43:40;1.77;;;1.10;;
73120;SDS011;61307;49.628;-1.624;2023-11-22T00:46:07;2.40;;;1.13;;
73120;SDS011;61307;49.628;-1.624;2023-11-22T00:48:33;2.28;;;1.27;;
73120;SDS011;61307;49.628;-1.624;2023-11-22T00:51:00;4.05;;;1.10;;
73120;SDS011;61307;49.628;-1.624;2023-11-22T00:53:33;2.75;;;1.00;;
73120;SDS011;61307;49.628;-1.624;2023-11-22T00:56:01;2.08;;;1.00;;
73120;SDS011;61307;49.628;-1.624;2023-11-22T00:58:28;2.80;;;1.00;;
73120;SDS011;61307;49.628;-1.624;2023-11-22T01:00:56;2.53;;;1.08;;
73120;SDS011;61307;49.628;-1.624;2023-11-22T01:03:23;2.17;;;1.10;;
73120;SDS011;61307;49.628;-1.624;2023-11-22T01:05:50;2.63;;;1.02;;
73120;SDS011;61307;49.628;-1.624;2023-11-22T01:08:17;2.80;;;0.95;;
73120;SDS011;61307;49.628;-1.624;2023-11-22T01:10:44;2.38;;;0.90;;
73120;SDS011;61307;49.628;-1.624;2023-11-22T01:13:11;2.33;;;1.17;;
73120;SDS011;61307;49.628;-1.624;2023-11-22T01:15:39;2.10;;;1.10;;
73120;SDS011;61307;49.628;-1.624;2023-11-22T01:18:08;3.03;;;1.73;;
73120;SDS011;61307;49.628;-1.624;2023-11-22T01:20:34;1.70;;;0.90;;
73120;SDS011;61307;49.628;-1.624;2023-11-22T01:23:01;2.10;;;1.08;;
73120;SDS011;61307;49.628;-1.624;2023-11-22T01:25:28;4.97;;;1.17;;
73120;SDS011;61307;49.628;-1.624;2023-11-22T01:27:55;4.10;;;1.10;;
73120;SDS011;61307;49.628;-1.624;2023-11-22T01:30:22;2.55;;;1.10;;
73120;SDS011;61307;49.628;-1.624;2023-11-22T01:32:49;1.80;;;1.15;;
73120;SDS011;61307;49.628;-1.624;2023-11-22T01:35:17;2.08;;;0.93;;
73120;SDS011;61307;49.628;-1.624;2023-11-22T01:37:44;3.85;;;1.30;;
73120;SDS011;61307;49.628;-1.624;2023-11-22T01:40:11;3.22;;;0.98;;
73120;SDS011;61307;49.628;-1.624;2023-11-22T01:42:38;2.00;;;1.25;;
73120;SDS011;61307;49.628;-1.624;2023-11-22T01:45:06;3.55;;;1.30;;
73120;SDS011;61307;49.628;-1.624;2023-11-22T01:47:34;3.60;;;1.10;;
73120;SDS011;61307;49.628;-1.624;2023-11-22T01:50:02;2.17;;;1.10;;
73120;SDS011;61307;49.628;-1.624;2023-11-22T01:52:31;4.35;;;1.00;;
73120;SDS011;61307;49.628;-1.624;2023-11-22T01:54:58;2.20;;;1.00;;
73120;SDS011;61307;49.628;-1.624;2023-11-22T01:57:29;2.38;;;1.08;;
73120;SDS011;61307;49.628;-1.624;2023-11-22T01:59:58;3.22;;;1.27;;
73120;SDS011;61307;49.628;-1.624;2023-11-22T02:02:26;1.20;;;0.80;;
73120;SDS011;61307;49.628;-1.624;2023-11-22T02:04:53;2.65;;;1.20;;
73120;SDS011;61307;49.628;-1.624;2023-11-22T02:07:19;2.53;;;1.23;;
73120;SDS011;61307;49.628;-1.624;2023-11-22T02:09:48;1.95;;;1.20;;
73120;SDS011;61307;49.628;-1.624;2023-11-22T02:12:15;2.80;;;1.13;;
73120;SDS011;61307;49.628;-1.624;2023-11-22T02:14:42;1.45;;;1.02;;
73120;SDS011;61307;49.628;-1.624;2023-11-22T02:17:08;4.57;;;1.33;;
73120;SDS011;61307;49.628;-1.624;2023-11-22T02:19:35;2.05;;;0.90;;
73120;SDS011;61307;49.628;-1.624;2023-11-22T02:22:03;2.75;;;1.08;;
73120;SDS011;61307;49.628;-1.624;2023-11-22T02:24:31;1.10;;;0.90;;
73120;SDS011;61307;49.628;-1.624;2023-11-22T02:26:59;2.00;;;1.00;;
73120;SDS011;61307;49.628;-1.624;2023-11-22T02:29:26;2.65;;;1.15;;
73120;SDS011;61307;49.628;-1.624;2023-11-22T02:31:54;2.22;;;1.23;;
73120;SDS011;61307;49.628;-1.624;2023-11-22T02:34:21;2.83;;;1.10;;
73120;SDS011;61307;49.628;-1.624;2023-11-22T02:36:47;5.15;;;1.23;;
73120;SDS011;61307;49.628;-1.624;2023-11-22T02:39:15;3.53;;;1.30;;
73120;SDS011;61307;49.628;-1.624;2023-11-22T02:41:45;4.55;;;1.10;;
73120;SDS011;61307;49.628;-1.624;2023-11-22T02:44:13;1.83;;;1.00;;
73120;SDS011;61307;49.628;-1.624;2023-11-22T02:46:42;2.10;;;1.20;;
73120;SDS011;61307;49.628;-1.624;2023-11-22T02:49:09;5.43;;;1.20;;
73120;SDS011;61307;49.628;-1.624;2023-11-22T02:51:36;3.10;;;1.20;;
73120;SDS011;61307;49.628;-1.624;2023-11-22T02:54:03;3.00;;;1.30;;
73120;SDS011;61307;49.628;-1.624;2023-11-22T02:56:30;2.33;;;1.17;;
73120;SDS011;61307;49.628;-1.624;2023-11-22T02:58:58;1.60;;;0.98;;
73120;SDS011;61307;49.628;-1.624;2023-11-22T03:01:25;2.70;;;1.10;;
73120;SDS011;61307;49.628;-1.624;2023-11-22T03:03:52;3.22;;;1.27;;
73120;SDS011;61307;49.628;-1.624;2023-11-22T03:06:19;3.47;;;1.13;;
73120;SDS011;61307;49.628;-1.624;2023-11-22T03:08:46;3.33;;;1.42;;
73120;SDS011;61307;49.628;-1.624;2023-11-22T03:11:14;4.90;;;1.52;;
73120;SDS011;61307;49.628;-1.624;2023-11-22T03:13:41;2.92;;;1.45;;
73120;SDS011;61307;49.628;-1.624;2023-11-22T03:16:10;1.23;;;0.90;;
73120;SDS011;61307;49.628;-1.624;2023-11-22T03:18:37;2.05;;;1.00;;
73120;SDS011;61307;49.628;-1.624;2023-11-22T03:21:05;2.35;;;1.05;;
73120;SDS011;61307;49.628;-1.624;2023-11-22T03:23:31;1.90;;;1.25;;
73120;SDS011;61307;49.628;-1.624;2023-11-22T03:25:57;2.35;;;1.27;;
73120;SDS011;61307;49.628;-1.624;2023-11-22T03:28:24;1.65;;;1.10;;
73120;SDS011;61307;49.628;-1.624;2023-11-22T03:30:51;5.28;;;1.45;;
73120;SDS011;61307;49.628;-1.624;2023-11-22T03:33:19;1.95;;;1.13;;
73120;SDS011;61307;49.628;-1.624;2023-11-22T03:35:46;3.40;;;1.30;;
73120;SDS011;61307;49.628;-1.624;2023-11-22T03:38:13;2.28;;;1.30;;
73120;SDS011;61307;49.628;-1.624;2023-11-22T03:40:40;4.60;;;1.30;;
73120;SDS011;61307;49.628;-1.624;2023-11-22T03:43:07;2.88;;;1.10;;
73120;SDS011;61307;49.628;-1.624;2023-11-22T03:45:35;2.63;;;1.17;;
73120;SDS011;61307;49.628;-1.624;2023-11-22T03:48:02;2.58;;;1.23;;
73120;SDS011;61307;49.628;-1.624;2023-11-22T03:50:30;2.40;;;1.25;;
73120;SDS011;61307;49.628;-1.624;2023-11-22T03:52:57;5.10;;;1.20;;
73120;SDS011;61307;49.628;-1.624;2023-11-22T03:55:24;3.80;;;1.25;;
73120;SDS011;61307;49.628;-1.624;2023-11-22T03:57:50;3.38;;;1.38;;
73120;SDS011;61307;49.628;-1.624;2023-11-22T04:00:18;3.75;;;1.20;;
73120;SDS011;61307;49.628;-1.624;2023-11-22T04:02:45;2.55;;;1.10;;
73120;SDS011;61307;49.628;-1.624;2023-11-22T04:05:12;1.92;;;1.20;;
73120;SDS011;61307;49.628;-1.624;2023-11-22T04:07:42;4.97;;;1.33;;
73120;SDS011;61307;49.628;-1.624;2023-11-22T04:10:08;3.17;;;1.27;;
73120;SDS011;61307;49.628;-1.624;2023-11-22T04:12:35;2.72;;;1.30;;
73120;SDS011;61307;49.628;-1.624;2023-11-22T04:15:03;2.33;;;1.05;;
73120;SDS011;61307;49.628;-1.624;2023-11-22T04:17:33;4.00;;;1.55;;
73120;SDS011;61307;49.628;-1.624;2023-11-22T04:20:02;2.55;;;1.40;;
73120;SDS011;61307;49.628;-1.624;2023-11-22T04:22:33;3.30;;;1.40;;
73120;SDS011;61307;49.628;-1.624;2023-11-22T04:25:02;5.00;;;1.35;;
73120;SDS011;61307;49.628;-1.624;2023-11-22T04:27:29;2.40;;;1.17;;
73120;SDS011;61307;49.628;-1.624;2023-11-22T04:29:56;2.80;;;1.15;;
73120;SDS011;61307;49.628;-1.624;2023-11-22T04:32:23;2.60;;;1.40;;
73120;SDS011;61307;49.628;-1.624;2023-11-22T04:34:50;2.08;;;1.40;;
73120;SDS011;61307;49.628;-1.624;2023-11-22T04:37:16;3.72;;;1.38;;
73120;SDS011;61307;49.628;-1.624;2023-11-22T04:39:43;4.03;;;1.35;;
73120;SDS011;61307;49.628;-1.624;2023-11-22T04:42:15;2.38;;;1.17;;
73120;SDS011;61307;49.628;-1.624;2023-11-22T04:44:42;4.47;;;1.40;;
73120;SDS011;61307;49.628;-1.624;2023-11-22T04:47:09;1.75;;;1.15;;
73120;SDS011;61307;49.628;-1.624;2023-11-22T04:49:36;2.75;;;1.10;;
73120;SDS011;61307;49.628;-1.624;2023-11-22T04:52:03;2.63;;;1.23;;
73120;SDS011;61307;49.628;-1.624;2023-11-22T04:54:30;2.70;;;1.10;;
73120;SDS011;61307;49.628;-1.624;2023-11-22T04:56:58;5.82;;;1.23;;
73120;SDS011;61307;49.628;-1.624;2023-11-22T04:59:26;2.03;;;1.10;;
73120;SDS011;61307;49.628;-1.624;2023-11-22T05:01:52;3.47;;;1.20;;
73120;SDS011;61307;49.628;-1.624;2023-11-22T05:04:19;3.15;;;1.20;;
73120;SDS011;61307;49.628;-1.624;2023-11-22T05:06:46;2.00;;;1.10;;
73120;SDS011;61307;49.628;-1.624;2023-11-22T05:09:13;4.82;;;1.40;;
73120;SDS011;61307;49.628;-1.624;2023-11-22T05:11:40;3.00;;;1.40;;
73120;SDS011;61307;49.628;-1.624;2023-11-22T05:14:07;2.53;;;1.17;;
73120;SDS011;61307;49.628;-1.624;2023-11-22T05:16:35;2.67;;;1.13;;
73120;SDS011;61307;49.628;-1.624;2023-11-22T05:19:02;4.30;;;1.30;;
73120;SDS011;61307;49.628;-1.624;2023-11-22T05:21:29;2.45;;;1.10;;
73120;SDS011;61307;49.628;-1.624;2023-11-22T05:23:57;2.83;;;1.20;;
73120;SDS011;61307;49.628;-1.624;2023-11-22T05:26:24;4.30;;;1.10;;
73120;SDS011;61307;49.628;-1.624;2023-11-22T05:28:52;3.08;;;1.50;;
73120;SDS011;61307;49.628;-1.624;2023-11-22T05:31:19;8.85;;;1.42;;
73120;SDS011;61307;49.628;-1.624;2023-11-22T05:33:48;1.55;;;1.10;;
73120;SDS011;61307;49.628;-1.624;2023-11-22T05:36:14;3.35;;;1.25;;
73120;SDS011;61307;49.628;-1.624;2023-11-22T05:38:42;1.70;;;1.30;;
73120;SDS011;61307;49.628;-1.624;2023-11-22T05:41:08;1.50;;;1.08;;
73120;SDS011;61307;49.628;-1.624;2023-11-22T05:43:35;3.53;;;1.10;;
73120;SDS011;61307;49.628;-1.624;2023-11-22T05:46:02;4.65;;;1.25;;
73120;SDS011;61307;49.628;-1.624;2023-11-22T05:48:29;4.20;;;1.23;;
73120;SDS011;61307;49.628;-1.624;2023-11-22T05:50:58;2.38;;;1.00;;
73120;SDS011;61307;49.628;-1.624;2023-11-22T05:53:24;3.35;;;1.40;;
73120;SDS011;61307;49.628;-1.624;2023-11-22T05:55:51;2.50;;;1.30;;
73120;SDS011;61307;49.628;-1.624;2023-11-22T05:58:18;2.30;;;1.20;;
73120;SDS011;61307;49.628;-1.624;2023-11-22T06:00:46;3.33;;;1.27;;
73120;SDS011;61307;49.628;-1.624;2023-11-22T06:03:13;4.22;;;1.75;;
73120;SDS011;61307;49.628;-1.624;2023-11-22T06:05:40;2.47;;;1.52;;
73120;SDS011;61307;49.628;-1.624;2023-11-22T06:08:09;2.17;;;1.15;;
73120;SDS011;61307;49.628;-1.624;2023-11-22T06:10:35;4.45;;;1.30;;
73120;SDS011;61307;49.628;-1.624;2023-11-22T06:13:03;5.18;;;1.17;;
73120;SDS011;61307;49.628;-1.624;2023-11-22T06:15:30;1.95;;;1.00;;
73120;SDS011;61307;49.628;-1.624;2023-11-22T06:17:57;2.55;;;1.27;;
73120;SDS011;61307;49.628;-1.624;2023-11-22T06:20:24;2.63;;;1.35;;
73120;SDS011;61307;49.628;-1.624;2023-11-22T06:22:52;2.65;;;0.93;;
73120;SDS011;61307;49.628;-1.624;2023-11-22T06:25:20;1.63;;;0.98;;
73120;SDS011;61307;49.628;-1.624;2023-11-22T06:27:47;3.10;;;0.98;;
73120;SDS011;61307;49.628;-1.624;2023-11-22T06:30:14;4.63;;;1.20;;
73120;SDS011;61307;49.628;-1.624;2023-11-22T06:32:41;2.30;;;1.10;;
73120;SDS011;61307;49.628;-1.624;2023-11-22T06:35:08;1.80;;;1.17;;
73120;SDS011;61307;49.628;-1.624;2023-11-22T06:37:36;1.33;;;0.90;;
73120;SDS011;61307;49.628;-1.624;2023-11-22T06:40:04;2.78;;;1.10;;
73120;SDS011;61307;49.628;-1.624;2023-11-22T06:42:32;2.65;;;1.20;;
73120;SDS011;61307;49.628;-1.624;2023-11-22T06:44:59;3.20;;;0.93;;
73120;SDS011;61307;49.628;-1.624;2023-11-22T06:47:27;1.42;;;1.10;;
73120;SDS011;61307;49.628;-1.624;2023-11-22T06:49:54;1.60;;;1.05;;
73120;SDS011;61307;49.628;-1.624;2023-11-22T06:52:20;1.90;;;1.08;;
73120;SDS011;61307;49.628;-1.624;2023-11-22T06:54:47;2.20;;;1.02;;
73120;SDS011;61307;49.628;-1.624;2023-11-22T06:57:14;2.28;;;1.23;;
73120;SDS011;61307;49.628;-1.624;2023-11-22T06:59:42;3.03;;;1.17;;
73120;SDS011;61307;49.628;-1.624;2023-11-22T07:02:09;1.48;;;1.02;;
73120;SDS011;61307;49.628;-1.624;2023-11-22T07:04:36;4.95;;;1.17;;
73120;SDS011;61307;49.628;-1.624;2023-11-22T07:07:04;1.85;;;0.88;;
73120;SDS011;61307;49.628;-1.624;2023-11-22T07:09:34;2.67;;;1.00;;
73120;SDS011;61307;49.628;-1.624;2023-11-22T07:12:01;3.03;;;1.00;;
73120;SDS011;61307;49.628;-1.624;2023-11-22T07:14:31;1.70;;;0.90;;
73120;SDS011;61307;49.628;-1.624;2023-11-22T07:16:59;4.05;;;1.38;;
73120;SDS011;61307;49.628;-1.624;2023-11-22T07:19:26;2.05;;;1.13;;
73120;SDS011;61307;49.628;-1.624;2023-11-22T07:21:53;2.85;;;1.20;;
73120;SDS011;61307;49.628;-1.624;2023-11-22T07:24:20;2.75;;;1.10;;
73120;SDS011;61307;49.628;-1.624;2023-11-22T07:26:49;2.17;;;0.85;;
73120;SDS011;61307;49.628;-1.624;2023-11-22T07:29:16;2.47;;;1.13;;
73120;SDS011;61307;49.628;-1.624;2023-11-22T07:31:43;2.35;;;1.15;;
73120;SDS011;61307;49.628;-1.624;2023-11-22T07:34:11;3.20;;;1.20;;
73120;SDS011;61307;49.628;-1.624;2023-11-22T07:36:38;2.97;;;1.15;;
73120;SDS011;61307;49.628;-1.624;2023-11-22T07:39:05;2.97;;;1.10;;
73120;SDS011;61307;49.628;-1.624;2023-11-22T07:41:32;2.03;;;1.13;;
73120;SDS011;61307;49.628;-1.624;2023-11-22T07:44:00;3.78;;;1.23;;
73120;SDS011;61307;49.628;-1.624;2023-11-22T07:46:27;1.88;;;0.88;;
73120;SDS011;61307;49.628;-1.624;2023-11-22T07:48:54;2.25;;;1.30;;
73120;SDS011;61307;49.628;-1.624;2023-11-22T07:51:22;1.65;;;1.08;;
73120;SDS011;61307;49.628;-1.624;2023-11-22T07:53:50;2.97;;;1.10;;
73120;SDS011;61307;49.628;-1.624;2023-11-22T07:56:20;1.85;;;1.13;;
73120;SDS011;61307;49.628;-1.624;2023-11-22T07:58:50;1.52;;;1.00;;
73120;SDS011;61307;49.628;-1.624;2023-11-22T08:01:17;2.33;;;1.33;;
73120;SDS011;61307;49.628;-1.624;2023-11-22T08:03:47;1.83;;;1.20;;
73120;SDS011;61307;49.628;-1.624;2023-11-22T08:06:16;2.13;;;1.13;;
73120;SDS011;61307;49.628;-1.624;2023-11-22T08:08:45;3.72;;;1.55;;
73120;SDS011;61307;49.628;-1.624;2023-11-22T08:11:14;2.80;;;1.00;;
73120;SDS011;61307;49.628;-1.624;2023-11-22T08:13:52;3.20;;;1.48;;
73120;SDS011;61307;49.628;-1.624;2023-11-22T08:16:28;2.88;;;1.00;;
73120;SDS011;61307;49.628;-1.624;2023-11-22T08:18:57;3.78;;;1.20;;
73120;SDS011;61307;49.628;-1.624;2023-11-22T08:21:25;3.45;;;1.42;;
73120;SDS011;61307;49.628;-1.624;2023-11-22T08:23:56;2.78;;;1.23;;
73120;SDS011;61307;49.628;-1.624;2023-11-22T08:26:25;5.10;;;1.52;;
73120;SDS011;61307;49.628;-1.624;2023-11-22T08:28:53;1.98;;;1.00;;
73120;SDS011;61307;49.628;-1.624;2023-11-22T08:31:22;9.85;;;1.40;;
73120;SDS011;61307;49.628;-1.624;2023-11-22T08:33:49;1.95;;;1.15;;
73120;SDS011;61307;49.628;-1.624;2023-11-22T08:36:16;3.55;;;1.50;;
73120;SDS011;61307;49.628;-1.624;2023-11-22T08:38:43;4.72;;;1.35;;
73120;SDS011;61307;49.628;-1.624;2023-11-22T08:41:16;5.88;;;1.50;;
73120;SDS011;61307;49.628;-1.624;2023-11-22T08:43:52;3.83;;;1.08;;
73120;SDS011;61307;49.628;-1.624;2023-11-22T08:46:22;4.18;;;1.10;;
73120;SDS011;61307;49.628;-1.624;2023-11-22T08:48:49;3.30;;;1.17;;
73120;SDS011;61307;49.628;-1.624;2023-11-22T08:51:17;5.75;;;1.30;;
73120;SDS011;61307;49.628;-1.624;2023-11-22T08:53:47;6.35;;;1.30;;
73120;SDS011;61307;49.628;-1.624;2023-11-22T08:56:18;8.60;;;1.33;;
73120;SDS011;61307;49.628;-1.624;2023-11-22T08:58:45;7.90;;;1.35;;
73120;SDS011;61307;49.628;-1.624;2023-11-22T09:01:13;3.45;;;1.30;;
73120;SDS011;61307;49.628;-1.624;2023-11-22T09:03:40;4.03;;;1.40;;
73120;SDS011;61307;49.628;-1.624;2023-11-22T09:06:08;5.15;;;1.20;;
73120;SDS011;61307;49.628;-1.624;2023-11-22T09:08:35;4.22;;;1.50;;
73120;SDS011;61307;49.628;-1.624;2023-11-22T09:11:03;3.35;;;1.30;;
73120;SDS011;61307;49.628;-1.624;2023-11-22T09:13:32;3.42;;;0.88;;
73120;SDS011;61307;49.628;-1.624;2023-11-22T09:16:00;26.50;;;5.97;;
73120;SDS011;61307;49.628;-1.624;2023-11-22T09:18:30;63.45;;;24.10;;
73120;SDS011;61307;49.628;-1.624;2023-11-22T09:20:58;55.08;;;15.52;;
73120;SDS011;61307;49.628;-1.624;2023-11-22T09:23:25;38.47;;;16.77;;
73120;SDS011;61307;49.628;-1.624;2023-11-22T09:25:53;29.67;;;11.23;;
73120;SDS011;61307;49.628;-1.624;2023-11-22T09:28:20;22.85;;;9.68;;
73120;SDS011;61307;49.628;-1.624;2023-11-22T09:30:48;15.90;;;6.65;;
73120;SDS011;61307;49.628;-1.624;2023-11-22T09:33:16;19.85;;;6.00;;
73120;SDS011;61307;49.628;-1.624;2023-11-22T09:35:47;10.40;;;5.32;;
73120;SDS011;61307;49.628;-1.624;2023-11-22T09:38:14;11.43;;;4.47;;
73120;SDS011;61307;49.628;-1.624;2023-11-22T09:40:45;9.40;;;3.92;;
73120;SDS011;61307;49.628;-1.624;2023-11-22T09:43:14;14.38;;;3.70;;
73120;SDS011;61307;49.628;-1.624;2023-11-22T09:45:42;10.40;;;3.50;;
73120;SDS011;61307;49.628;-1.624;2023-11-22T09:48:14;8.85;;;3.28;;
73120;SDS011;61307;49.628;-1.624;2023-11-22T09:50:48;10.25;;;3.42;;
73120;SDS011;61307;49.628;-1.624;2023-11-22T09:53:28;6.10;;;3.17;;
73120;SDS011;61307;49.628;-1.624;2023-11-22T09:56:03;6.70;;;2.60;;
73120;SDS011;61307;49.628;-1.624;2023-11-22T09:58:33;10.10;;;2.75;;
73120;SDS011;61307;49.628;-1.624;2023-11-22T10:01:03;8.18;;;2.80;;
73120;SDS011;61307;49.628;-1.624;2023-11-22T10:03:57;59.63;;;11.43;;
73120;SDS011;61307;49.628;-1.624;2023-11-22T10:06:25;97.72;;;14.40;;
73120;SDS011;61307;49.628;-1.624;2023-11-22T10:08:58;53.90;;;8.77;;
73120;SDS011;61307;49.628;-1.624;2023-11-22T10:11:39;32.25;;;6.57;;
73120;SDS011;61307;49.628;-1.624;2023-11-22T10:14:23;27.13;;;5.85;;
73120;SDS011;61307;49.628;-1.624;2023-11-22T10:16:59;19.00;;;4.28;;
73120;SDS011;61307;49.628;-1.624;2023-11-22T10:22:50;13.10;;;3.78;;
73120;SDS011;61307;49.628;-1.624;2023-11-22T10:25:20;9.70;;;2.90;;
73120;SDS011;61307;49.628;-1.624;2023-11-22T10:28:01;10.55;;;2.97;;
73120;SDS011;61307;49.628;-1.624;2023-11-22T10:30:35;7.45;;;2.75;;
73120;SDS011;61307;49.628;-1.624;2023-11-22T10:33:04;10.05;;;2.80;;
73120;SDS011;61307;49.628;-1.624;2023-11-22T10:35:42;8.43;;;2.63;;
73120;SDS011;61307;49.628;-1.624;2023-11-22T10:38:10;12.20;;;3.00;;
73120;SDS011;61307;49.628;-1.624;2023-11-22T10:40:46;8.48;;;2.60;;
73120;SDS011;61307;49.628;-1.624;2023-11-22T10:43:17;5.85;;;2.60;;
73120;SDS011;61307;49.628;-1.624;2023-11-22T10:46:27;8.50;;;2.40;;
73120;SDS011;61307;49.628;-1.624;2023-11-22T10:48:55;6.70;;;2.20;;
73120;SDS011;61307;49.628;-1.624;2023-11-22T10:51:33;7.85;;;2.60;;
73120;SDS011;61307;49.628;-1.624;2023-11-22T10:54:06;5.28;;;1.90;;
73120;SDS011;61307;49.628;-1.624;2023-11-22T10:56:43;8.02;;;1.90;;
73120;SDS011;61307;49.628;-1.624;2023-11-22T10:59:19;7.47;;;2.53;;
73120;SDS011;61307;49.628;-1.624;2023-11-22T11:01:53;3.05;;;1.85;;
73120;SDS011;61307;49.628;-1.624;2023-11-22T11:04:28;6.30;;;2.08;;
73120;SDS011;61307;49.628;-1.624;2023-11-22T11:07:03;9.57;;;2.10;;
73120;SDS011;61307;49.628;-1.624;2023-11-22T11:09:40;6.03;;;2.10;;
73120;SDS011;61307;49.628;-1.624;2023-11-22T11:12:13;5.10;;;2.08;;
73120;SDS011;61307;49.628;-1.624;2023-11-22T11:14:51;3.83;;;1.90;;
73120;SDS011;61307;49.628;-1.624;2023-11-22T11:17:22;4.88;;;2.20;;
73120;SDS011;61307;49.628;-1.624;2023-11-22T11:19:58;4.50;;;1.80;;
73120;SDS011;61307;49.628;-1.624;2023-11-22T11:22:48;4.85;;;1.92;;
73120;SDS011;61307;49.628;-1.624;2023-11-22T11:25:17;6.35;;;1.80;;
73120;SDS011;61307;49.628;-1.624;2023-11-22T11:27:55;7.05;;;2.28;;
73120;SDS011;61307;49.628;-1.624;2023-11-22T11:33:19;5.97;;;2.45;;
73120;SDS011;61307;49.628;-1.624;2023-11-22T11:35:58;4.70;;;1.58;;
73120;SDS011;61307;49.628;-1.624;2023-11-22T11:38:36;2.65;;;1.73;;
73120;SDS011;61307;49.628;-1.624;2023-11-22T11:41:06;3.80;;;1.65;;
73120;SDS011;61307;49.628;-1.624;2023-11-22T11:43:46;7.50;;;1.70;;
73120;SDS011;61307;49.628;-1.624;2023-11-22T11:46:15;8.30;;;1.98;;
73120;SDS011;61307;49.628;-1.624;2023-11-22T11:48:43;3.80;;;1.90;;
73120;SDS011;61307;49.628;-1.624;2023-11-22T11:51:13;7.70;;;1.50;;
73120;SDS011;61307;49.628;-1.624;2023-11-22T11:53:44;4.20;;;1.60;;
73120;SDS011;61307;49.628;-1.624;2023-11-22T11:56:15;5.25;;;1.60;;
73120;SDS011;61307;49.628;-1.624;2023-11-22T11:58:42;3.30;;;1.40;;
73120;SDS011;61307;49.628;-1.624;2023-11-22T12:01:11;8.57;;;1.80;;
73120;SDS011;61307;49.628;-1.624;2023-11-22T12:03:38;4.18;;;1.42;;
73120;SDS011;61307;49.628;-1.624;2023-11-22T12:06:06;2.22;;;1.73;;
73120;SDS011;61307;49.628;-1.624;2023-11-22T12:08:33;3.65;;;1.80;;
73120;SDS011;61307;49.628;-1.624;2023-11-22T12:11:03;2.88;;;1.52;;
73120;SDS011;61307;49.628;-1.624;2023-11-22T12:13:34;4.05;;;1.38;;
73120;SDS011;61307;49.628;-1.624;2023-11-22T12:16:03;2.63;;;1.52;;
73120;SDS011;61307;49.628;-1.624;2023-11-22T12:18:39;2.33;;;1.48;;
73120;SDS011;61307;49.628;-1.624;2023-11-22T12:21:09;2.72;;;1.58;;
73120;SDS011;61307;49.628;-1.624;2023-11-22T12:23:38;2.60;;;1.50;;
73120;SDS011;61307;49.628;-1.624;2023-11-22T12:26:10;3.35;;;1.10;;
73120;SDS011;61307;49.628;-1.624;2023-11-22T12:28:39;2.47;;;1.30;;
73120;SDS011;61307;49.628;-1.624;2023-11-22T12:31:07;2.95;;;1.73;;
73120;SDS011;61307;49.628;-1.624;2023-11-22T12:33:35;2.83;;;1.40;;
73120;SDS011;61307;49.628;-1.624;2023-11-22T12:36:02;2.50;;;1.50;;
73120;SDS011;61307;49.628;-1.624;2023-11-22T12:38:30;3.13;;;1.50;;
73120;SDS011;61307;49.628;-1.624;2023-11-22T12:40:58;3.13;;;1.45;;
73120;SDS011;61307;49.628;-1.624;2023-11-22T12:43:29;2.20;;;1.60;;
73120;SDS011;61307;49.628;-1.624;2023-11-22T12:45:59;3.22;;;1.48;;
73120;SDS011;61307;49.628;-1.624;2023-11-22T12:48:28;4.90;;;1.30;;
73120;SDS011;61307;49.628;-1.624;2023-11-22T12:50:57;5.68;;;1.30;;
73120;SDS011;61307;49.628;-1.624;2023-11-22T12:53:25;2.50;;;1.20;;
73120;SDS011;61307;49.628;-1.624;2023-11-22T12:55:54;4.53;;;1.70;;
73120;SDS011;61307;49.628;-1.624;2023-11-22T12:58:22;3.50;;;1.50;;
73120;SDS011;61307;49.628;-1.624;2023-11-22T13:00:52;3.05;;;1.30;;
73120;SDS011;61307;49.628;-1.624;2023-11-22T13:03:23;2.42;;;1.42;;
73120;SDS011;61307;49.628;-1.624;2023-11-22T13:05:51;3.45;;;1.30;;
73120;SDS011;61307;49.628;-1.624;2023-11-22T13:08:24;4.20;;;1.40;;
73120;SDS011;61307;49.628;-1.624;2023-11-22T13:10:54;2.33;;;1.50;;
73120;SDS011;61307;49.628;-1.624;2023-11-22T13:13:22;12.73;;;1.45;;
73120;SDS011;61307;49.628;-1.624;2023-11-22T13:15:52;2.58;;;1.13;;
73120;SDS011;61307;49.628;-1.624;2023-11-22T13:18:19;4.32;;;1.30;;
73120;SDS011;61307;49.628;-1.624;2023-11-22T13:20:46;7.75;;;1.50;;
73120;SDS011;61307;49.628;-1.624;2023-11-22T13:23:14;4.25;;;1.40;;
73120;SDS011;61307;49.628;-1.624;2023-11-22T13:25:41;3.28;;;1.75;;
73120;SDS011;61307;49.628;-1.624;2023-11-22T13:28:09;2.40;;;1.38;;
73120;SDS011;61307;49.628;-1.624;2023-11-22T13:30:38;3.78;;;1.20;;
73120;SDS011;61307;49.628;-1.624;2023-11-22T13:33:07;5.97;;;1.45;;
73120;SDS011;61307;49.628;-1.624;2023-11-22T13:35:34;5.85;;;1.50;;
73120;SDS011;61307;49.628;-1.624;2023-11-22T13:38:03;3.03;;;1.58;;
73120;SDS011;61307;49.628;-1.624;2023-11-22T13:40:36;5.65;;;1.55;;
73120;SDS011;61307;49.628;-1.624;2023-11-22T13:43:05;2.60;;;1.30;;
73120;SDS011;61307;49.628;-1.624;2023-11-22T13:45:32;2.17;;;1.30;;
73120;SDS011;61307;49.628;-1.624;2023-11-22T13:48:03;2.25;;;1.15;;
73120;SDS011;61307;49.628;-1.624;2023-11-22T13:50:33;2.40;;;1.25;;
73120;SDS011;61307;49.628;-1.624;2023-11-22T13:53:00;5.95;;;1.33;;
73120;SDS011;61307;49.628;-1.624;2023-11-22T13:55:29;2.25;;;1.20;;
73120;SDS011;61307;49.628;-1.624;2023-11-22T13:57:57;2.58;;;1.15;;
73120;SDS011;61307;49.628;-1.624;2023-11-22T14:00:25;5.22;;;1.75;;
73120;SDS011;61307;49.628;-1.624;2023-11-22T14:02:57;4.95;;;1.42;;
73120;SDS011;61307;49.628;-1.624;2023-11-22T14:05:31;8.57;;;1.92;;
73120;SDS011;61307;49.628;-1.624;2023-11-22T14:08:01;7.95;;;1.30;;
73120;SDS011;61307;49.628;-1.624;2023-11-22T14:10:29;3.80;;;1.27;;
73120;SDS011;61307;49.628;-1.624;2023-11-22T14:12:56;3.70;;;1.40;;
73120;SDS011;61307;49.628;-1.624;2023-11-22T14:15:25;2.70;;;1.40;;
73120;SDS011;61307;49.628;-1.624;2023-11-22T14:17:53;2.95;;;1.48;;
73120;SDS011;61307;49.628;-1.624;2023-11-22T14:20:20;7.80;;;1.30;;
73120;SDS011;61307;49.628;-1.624;2023-11-22T14:22:48;2.33;;;1.20;;
73120;SDS011;61307;49.628;-1.624;2023-11-22T14:25:15;2.15;;;1.30;;
73120;SDS011;61307;49.628;-1.624;2023-11-22T14:27:43;4.68;;;1.48;;
73120;SDS011;61307;49.628;-1.624;2023-11-22T14:30:11;2.05;;;1.25;;
73120;SDS011;61307;49.628;-1.624;2023-11-22T14:32:42;6.55;;;1.95;;
73120;SDS011;61307;49.628;-1.624;2023-11-22T14:35:09;3.03;;;1.30;;
73120;SDS011;61307;49.628;-1.624;2023-11-22T14:37:39;4.30;;;1.55;;
73120;SDS011;61307;49.628;-1.624;2023-11-22T14:40:09;4.22;;;1.40;;
73120;SDS011;61307;49.628;-1.624;2023-11-22T14:42:41;3.30;;;1.17;;
73120;SDS011;61307;49.628;-1.624;2023-11-22T14:45:11;2.47;;;1.25;;
73120;SDS011;61307;49.628;-1.624;2023-11-22T14:47:44;3.30;;;1.33;;
73120;SDS011;61307;49.628;-1.624;2023-11-22T14:50:17;3.35;;;1.40;;